createdAt,value
2018-12-14T00:00:51.810Z,2.9
2018-12-14T00:01:51.824Z,2.79
2018-12-14T00:03:06.493Z,2.87
2018-12-14T00:03:51.849Z,2.81
2018-12-14T00:04:51.860Z,2.78
2018-12-14T00:05:51.973Z,2.77
2018-12-14T00:06:51.883Z,2.77
2018-12-14T00:07:51.897Z,2.72
2018-12-14T00:08:51.920Z,2.79
2018-12-14T00:09:51.923Z,2.82
2018-12-14T00:10:51.939Z,2.71
2018-12-14T00:12:06.664Z,2.67
2018-12-14T00:12:51.967Z,2.67
2018-12-14T00:14:06.639Z,2.72
2018-12-14T00:14:52.001Z,2.71
2018-12-14T00:15:52.002Z,2.71
2018-12-14T00:16:52.020Z,2.67
2018-12-14T00:17:52.036Z,2.71
2018-12-14T00:19:06.707Z,2.6
2018-12-14T00:19:52.111Z,2.69
2018-12-14T00:20:52.069Z,2.63
2018-12-14T00:21:52.089Z,2.67
2018-12-14T00:22:52.095Z,2.71
2018-12-14T00:24:06.778Z,2.67
2018-12-14T00:24:52.122Z,2.75
2018-12-14T00:25:52.134Z,2.74
2018-12-14T00:26:52.153Z,2.67
2018-12-14T00:27:52.160Z,2.69
2018-12-14T00:28:52.172Z,2.67
2018-12-14T00:29:52.241Z,2.75
2018-12-14T00:30:52.203Z,2.71
2018-12-14T00:31:52.221Z,2.67
2018-12-14T00:32:52.228Z,2.66
2018-12-14T00:33:52.244Z,2.71
2018-12-14T00:35:06.915Z,2.64
2018-12-14T00:35:52.267Z,2.63
2018-12-14T00:36:52.282Z,2.71
2018-12-14T00:37:52.296Z,2.6
2018-12-14T00:38:52.320Z,2.59
2018-12-14T00:39:52.369Z,2.61
2018-12-14T00:40:52.333Z,2.61
2018-12-14T00:41:56.809Z,2.54
2018-12-14T00:44:52.385Z,2.56
2018-12-14T00:46:07.062Z,2.57
2018-12-14T00:46:52.412Z,2.63
2018-12-14T00:48:07.087Z,2.57
2018-12-14T00:48:52.441Z,2.6
2018-12-14T00:50:07.117Z,2.54
2018-12-14T00:50:52.465Z,2.57
2018-12-14T00:51:52.486Z,2.64
2018-12-14T00:52:52.496Z,2.63
2018-12-14T00:54:52.518Z,2.49
2018-12-14T00:55:52.536Z,2.52
2018-12-14T00:56:52.545Z,2.59
2018-12-14T00:57:52.560Z,2.56
2018-12-14T00:58:52.575Z,2.61
2018-12-14T00:59:52.588Z,2.71
2018-12-14T01:00:52.602Z,2.74
2018-12-14T01:01:52.614Z,2.69
2018-12-14T01:03:07.284Z,2.59
2018-12-14T01:03:52.691Z,2.64
2018-12-14T01:04:52.664Z,2.59
2018-12-14T01:05:52.672Z,2.57
2018-12-14T01:06:52.679Z,2.53
2018-12-14T01:08:52.708Z,2.59
2018-12-14T01:09:52.768Z,2.56
2018-12-14T01:10:52.732Z,2.49
2018-12-14T01:11:58.040Z,2.59
2018-12-14T01:12:52.758Z,2.49
2018-12-14T01:13:52.770Z,2.54
2018-12-14T01:14:52.788Z,2.46
2018-12-14T01:16:52.810Z,2.57
2018-12-14T01:17:52.827Z,2.57
2018-12-14T01:18:52.841Z,2.52
2018-12-14T01:19:52.847Z,2.56
2018-12-14T01:20:52.858Z,2.61
2018-12-14T01:22:07.535Z,2.63
2018-12-14T01:22:52.888Z,2.66
2018-12-14T01:23:52.902Z,2.57
2018-12-14T01:24:52.911Z,2.54
2018-12-14T01:25:52.935Z,2.57
2018-12-14T01:27:52.960Z,2.56
2018-12-14T01:28:52.963Z,2.45
2018-12-14T01:29:52.988Z,2.48
2018-12-14T01:30:53.014Z,2.43
2018-12-14T01:31:53.004Z,2.46
2018-12-14T01:32:53.020Z,2.49
2018-12-14T01:33:53.033Z,2.49
2018-12-14T01:34:53.046Z,2.53
2018-12-14T01:35:53.109Z,2.45
2018-12-14T01:36:53.073Z,2.48
2018-12-14T01:38:07.746Z,2.45
2018-12-14T01:38:53.097Z,2.45
2018-12-14T01:39:53.111Z,2.45
2018-12-14T01:40:53.122Z,2.45
2018-12-14T01:41:53.136Z,2.45
2018-12-14T01:42:53.150Z,2.42
2018-12-14T01:43:53.168Z,2.36
2018-12-14T01:44:53.181Z,2.41
2018-12-14T01:45:53.192Z,2.35
2018-12-14T01:47:53.217Z,2.43
2018-12-14T01:48:53.287Z,2.42
2018-12-14T01:49:53.242Z,2.45
2018-12-14T01:50:53.256Z,2.39
2018-12-14T01:51:53.018Z,2.38
2018-12-14T01:52:53.327Z,2.38
2018-12-14T01:54:07.953Z,2.38
2018-12-14T01:54:53.311Z,2.31
2018-12-14T01:55:53.320Z,2.45
2018-12-14T01:56:53.430Z,2.43
2018-12-14T01:57:53.444Z,2.46
2018-12-14T01:58:53.355Z,2.35
2018-12-14T02:00:53.380Z,2.28
2018-12-14T02:01:53.395Z,2.35
2018-12-14T02:03:53.173Z,2.43
2018-12-14T02:04:53.441Z,2.48
2018-12-14T02:05:53.451Z,2.38
2018-12-14T02:06:53.463Z,2.34
2018-12-14T02:07:53.479Z,2.45
2018-12-14T02:08:53.489Z,2.39
2018-12-14T02:10:08.168Z,2.31
2018-12-14T02:10:53.516Z,2.36
2018-12-14T02:11:53.530Z,2.38
2018-12-14T02:12:53.538Z,2.34
2018-12-14T02:13:53.550Z,2.41
2018-12-14T02:14:53.567Z,2.39
2018-12-14T02:15:53.580Z,2.48
2018-12-14T02:16:53.602Z,2.46
2018-12-14T02:17:53.608Z,2.46
2018-12-14T02:18:53.617Z,2.42
2018-12-14T02:19:53.632Z,2.35
2018-12-14T02:20:53.641Z,2.34
2018-12-14T02:21:53.656Z,2.31
2018-12-14T02:22:53.673Z,2.3
2018-12-14T02:23:53.688Z,2.38
2018-12-14T02:25:08.368Z,2.35
2018-12-14T02:25:53.707Z,2.31
2018-12-14T02:26:53.721Z,2.36
2018-12-14T02:28:53.747Z,2.39
2018-12-14T02:29:53.759Z,2.41
2018-12-14T02:30:53.790Z,2.36
2018-12-14T02:31:53.789Z,2.35
2018-12-14T02:32:53.808Z,2.34
2018-12-14T02:34:08.478Z,2.25
2018-12-14T02:34:53.826Z,2.34
2018-12-14T02:35:53.890Z,2.3
2018-12-14T02:36:53.854Z,2.42
2018-12-14T02:37:53.867Z,2.3
2018-12-14T02:38:53.931Z,2.31
2018-12-14T02:40:53.904Z,2.43
2018-12-14T02:41:53.916Z,2.27
2018-12-14T02:42:53.956Z,2.35
2018-12-14T02:43:53.961Z,2.3
2018-12-14T02:44:53.958Z,2.31
2018-12-14T02:46:53.979Z,2.25
2018-12-14T02:47:53.993Z,2.24
2018-12-14T02:48:54.008Z,2.28
2018-12-14T02:49:54.026Z,2.24
2018-12-14T02:50:54.036Z,2.25
2018-12-14T02:52:54.061Z,2.27
2018-12-14T02:54:54.087Z,2.24
2018-12-14T02:56:08.773Z,2.34
2018-12-14T02:57:08.771Z,2.24
2018-12-14T02:57:54.121Z,2.31
2018-12-14T02:58:54.133Z,2.21
2018-12-14T02:59:54.149Z,2.28
2018-12-14T03:00:54.169Z,2.35
2018-12-14T03:01:54.325Z,2.21
2018-12-14T03:02:54.187Z,2.17
2018-12-14T03:03:54.199Z,2.27
2018-12-14T03:05:08.878Z,2.2
2018-12-14T03:05:54.225Z,2.2
2018-12-14T03:08:08.913Z,2.27
2018-12-14T03:09:08.925Z,2.36
2018-12-14T03:09:54.389Z,2.23
2018-12-14T03:11:08.948Z,2.3
2018-12-14T03:11:54.313Z,2.27
2018-12-14T03:13:08.977Z,2.24
2018-12-14T03:13:54.330Z,2.3
2018-12-14T03:14:54.352Z,2.16
2018-12-14T03:15:54.358Z,2.14
2018-12-14T03:16:54.372Z,2.17
2018-12-14T03:18:54.397Z,2.1
2018-12-14T03:19:54.413Z,2.25
2018-12-14T03:20:54.421Z,2.18
2018-12-14T03:21:54.446Z,2.24
2018-12-14T03:23:09.106Z,2.24
2018-12-14T03:23:54.460Z,2.18
2018-12-14T03:24:54.594Z,2.16
2018-12-14T03:25:54.484Z,2.24
2018-12-14T03:26:54.494Z,2.2
2018-12-14T03:27:54.509Z,2.1
2018-12-14T03:29:09.230Z,2.18
2018-12-14T03:29:54.535Z,2.09
2018-12-14T03:30:54.595Z,2.16
2018-12-14T03:31:54.574Z,2.12
2018-12-14T03:33:09.259Z,2.1
2018-12-14T03:33:54.592Z,2.06
2018-12-14T03:34:54.597Z,2.16
2018-12-14T03:35:54.610Z,2.1
2018-12-14T03:37:54.643Z,2.14
2018-12-14T03:39:09.314Z,2.09
2018-12-14T03:39:54.665Z,2.12
2018-12-14T03:40:54.684Z,2.14
2018-12-14T03:41:54.692Z,2.14
2018-12-14T03:42:54.705Z,2.16
2018-12-14T03:43:54.719Z,2.14
2018-12-14T03:45:09.389Z,2.16
2018-12-14T03:45:54.743Z,2.1
2018-12-14T03:46:54.754Z,2.09
2018-12-14T03:49:09.446Z,2.17
2018-12-14T03:49:54.793Z,2.23
2018-12-14T03:50:54.805Z,2.2
2018-12-14T03:51:54.817Z,2.07
2018-12-14T03:52:54.929Z,2.1
2018-12-14T03:53:54.844Z,2.14
2018-12-14T03:54:54.854Z,2.12
2018-12-14T03:55:54.877Z,2.03
2018-12-14T03:56:54.885Z,1.99
2018-12-14T03:57:54.906Z,2.06
2018-12-14T03:58:54.912Z,2.12
2018-12-14T04:00:09.587Z,2.12
2018-12-14T04:00:54.943Z,2.03
2018-12-14T04:01:54.948Z,2.17
2018-12-14T04:02:54.961Z,2.12
2018-12-14T04:03:54.974Z,2.17
2018-12-14T04:04:54.980Z,2.1
2018-12-14T04:05:54.994Z,2.09
2018-12-14T04:06:55.014Z,2.1
2018-12-14T04:07:55.031Z,2.14
2018-12-14T04:08:55.035Z,2.05
2018-12-14T04:09:55.055Z,2.03
2018-12-14T04:10:55.062Z,2.05
2018-12-14T04:12:09.735Z,2.06
2018-12-14T04:12:55.086Z,2.12
2018-12-14T04:13:55.100Z,2.14
2018-12-14T04:14:55.160Z,2.1
2018-12-14T04:15:55.131Z,2.12
2018-12-14T04:16:55.142Z,2
2018-12-14T04:17:55.202Z,2.03
2018-12-14T04:18:55.162Z,2.05
2018-12-14T04:19:55.178Z,2
2018-12-14T04:20:55.190Z,2.06
2018-12-14T04:22:55.211Z,2.03
2018-12-14T04:23:55.228Z,2
2018-12-14T04:24:56.898Z,2.06
2018-12-14T04:26:55.269Z,1.91
2018-12-14T04:27:55.283Z,2.02
2018-12-14T04:28:55.090Z,1.95
2018-12-14T04:29:55.304Z,1.87
2018-12-14T04:31:09.974Z,1.91
2018-12-14T04:32:10.041Z,1.87
2018-12-14T04:32:56.845Z,1.95
2018-12-14T04:33:55.406Z,1.84
2018-12-14T04:34:55.379Z,1.93
2018-12-14T04:35:55.385Z,1.98
2018-12-14T04:36:55.397Z,2
2018-12-14T04:37:55.407Z,1.98
2018-12-14T04:38:55.420Z,1.91
2018-12-14T04:39:55.436Z,1.93
2018-12-14T04:40:55.446Z,1.9
2018-12-14T04:41:55.461Z,1.95
2018-12-14T04:42:55.475Z,1.84
2018-12-14T04:43:55.486Z,1.9
2018-12-14T04:44:55.502Z,1.88
2018-12-14T04:46:10.168Z,1.79
2018-12-14T04:46:55.523Z,1.84
2018-12-14T04:48:10.196Z,1.79
2018-12-14T04:48:55.551Z,1.87
2018-12-14T04:49:55.563Z,1.86
2018-12-14T04:50:55.598Z,1.88
2018-12-14T04:51:55.588Z,2.03
2018-12-14T04:52:55.596Z,1.99
2018-12-14T04:53:55.363Z,1.9
2018-12-14T04:54:55.619Z,2
2018-12-14T04:55:55.641Z,1.91
2018-12-14T04:56:55.525Z,2.05
2018-12-14T04:57:55.664Z,2
2018-12-14T04:59:10.336Z,2.02
2018-12-14T04:59:55.738Z,1.99
2018-12-14T05:01:10.358Z,1.98
2018-12-14T05:01:55.715Z,2
2018-12-14T05:02:55.807Z,2
2018-12-14T05:04:10.405Z,2.02
2018-12-14T05:04:55.801Z,2.02
2018-12-14T05:05:55.763Z,1.93
2018-12-14T05:06:55.785Z,2.02
2018-12-14T05:07:55.783Z,2.02
2018-12-14T05:08:55.798Z,1.98
2018-12-14T05:09:55.820Z,2.02
2018-12-14T05:10:55.831Z,2.07
2018-12-14T05:11:55.840Z,2.02
2018-12-14T05:13:00.952Z,2.06
2018-12-14T05:13:55.868Z,2.09
2018-12-14T05:14:55.882Z,2
2018-12-14T05:15:55.890Z,2.05
2018-12-14T05:16:55.904Z,2.06
2018-12-14T05:17:55.911Z,2.03
2018-12-14T05:18:56.066Z,2.05
2018-12-14T05:20:10.605Z,2.02
2018-12-14T05:20:55.950Z,1.95
2018-12-14T05:21:56.015Z,1.95
2018-12-14T05:22:55.976Z,2.02
2018-12-14T05:23:55.986Z,2.03
2018-12-14T05:24:56.003Z,2.02
2018-12-14T05:25:56.013Z,2.05
2018-12-14T05:26:56.025Z,2.03
2018-12-14T05:28:56.050Z,2.02
2018-12-14T05:29:56.116Z,1.99
2018-12-14T05:30:56.074Z,1.99
2018-12-14T05:32:10.752Z,2
2018-12-14T05:32:56.102Z,2.05
2018-12-14T05:33:56.133Z,1.88
2018-12-14T05:35:10.790Z,1.84
2018-12-14T05:35:56.140Z,1.9
2018-12-14T05:36:56.159Z,1.81
2018-12-14T05:37:56.165Z,2.02
2018-12-14T05:38:56.179Z,1.91
2018-12-14T05:39:56.190Z,2.02
2018-12-14T05:40:56.204Z,2
2018-12-14T05:41:56.231Z,1.99
2018-12-14T05:43:02.331Z,2.05
2018-12-14T05:45:10.921Z,2.02
2018-12-14T05:45:56.268Z,2.02
2018-12-14T05:47:10.943Z,2.05
2018-12-14T05:48:10.956Z,2.03
2018-12-14T05:48:56.306Z,1.91
2018-12-14T05:49:56.319Z,1.98
2018-12-14T05:50:56.331Z,1.99
2018-12-14T05:51:57.558Z,1.99
2018-12-14T05:52:56.362Z,2
2018-12-14T05:53:56.373Z,1.99
2018-12-14T05:54:56.387Z,2.02
2018-12-14T05:55:56.400Z,2.06
2018-12-14T05:56:56.407Z,1.99
2018-12-14T05:57:56.176Z,1.98
2018-12-14T06:00:11.111Z,2.02
2018-12-14T06:00:56.465Z,2.02
2018-12-14T06:01:56.474Z,2.02
2018-12-14T06:02:56.590Z,1.98
2018-12-14T06:03:56.497Z,2.02
2018-12-14T06:04:56.509Z,1.95
2018-12-14T06:05:56.522Z,1.98
2018-12-14T06:07:11.196Z,1.98
2018-12-14T06:07:56.549Z,1.91
2018-12-14T06:08:56.560Z,1.95
2018-12-14T06:09:56.573Z,1.99
2018-12-14T06:10:56.588Z,2
2018-12-14T06:11:56.598Z,1.91
2018-12-14T06:12:56.667Z,1.98
2018-12-14T06:14:56.648Z,1.9
2018-12-14T06:15:56.648Z,1.88
2018-12-14T06:16:56.662Z,1.98
2018-12-14T06:17:56.673Z,1.88
2018-12-14T06:18:56.737Z,1.87
2018-12-14T06:19:56.708Z,2
2018-12-14T06:21:11.374Z,1.83
2018-12-14T06:21:56.729Z,1.98
2018-12-14T06:23:11.409Z,1.93
2018-12-14T06:23:56.803Z,2.06
2018-12-14T06:24:56.773Z,2.05
2018-12-14T06:25:56.778Z,2.03
2018-12-14T06:26:56.792Z,2.06
2018-12-14T06:27:56.852Z,2.03
2018-12-14T06:28:56.811Z,1.98
2018-12-14T06:31:11.503Z,1.95
2018-12-14T06:31:56.850Z,1.95
2018-12-14T06:33:11.526Z,1.86
2018-12-14T06:33:56.881Z,1.91
2018-12-14T06:34:56.895Z,1.81
2018-12-14T06:35:56.902Z,2
2018-12-14T06:36:56.915Z,1.91
2018-12-14T06:37:56.929Z,2.03
2018-12-14T06:39:11.604Z,1.93
2018-12-14T06:39:56.954Z,1.9
2018-12-14T06:40:58.190Z,1.87
2018-12-14T06:41:56.978Z,1.88
2018-12-14T06:42:57.043Z,1.95
2018-12-14T06:43:57.004Z,1.86
2018-12-14T06:44:57.015Z,1.93
2018-12-14T06:45:57.035Z,1.98
2018-12-14T06:46:57.092Z,2.02
2018-12-14T06:49:11.728Z,1.98
2018-12-14T06:51:11.760Z,2.09
2018-12-14T06:51:57.103Z,1.99
2018-12-14T06:52:57.120Z,1.98
2018-12-14T06:53:57.127Z,1.91
2018-12-14T06:55:11.802Z,1.93
2018-12-14T06:55:57.151Z,1.81
2018-12-14T06:56:57.215Z,1.83
2018-12-14T06:57:57.180Z,1.86
2018-12-14T06:58:57.198Z,1.88
2018-12-14T06:59:57.211Z,1.86
2018-12-14T07:00:57.262Z,1.84
2018-12-14T07:02:57.291Z,1.84
2018-12-14T07:03:57.256Z,1.87
2018-12-14T07:04:57.268Z,1.88
2018-12-14T07:05:57.287Z,1.86
2018-12-14T07:06:57.292Z,1.84
2018-12-14T07:07:57.308Z,1.87
2018-12-14T07:08:57.322Z,1.9
2018-12-14T07:10:11.993Z,1.76
2018-12-14T07:10:57.345Z,1.8
2018-12-14T07:11:57.356Z,1.87
2018-12-14T07:12:57.422Z,1.81
2018-12-14T07:13:57.380Z,1.79
2018-12-14T07:14:57.393Z,1.86
2018-12-14T07:15:57.409Z,1.83
2018-12-14T07:16:57.421Z,1.84
2018-12-14T07:18:57.459Z,1.91
2018-12-14T07:19:57.460Z,1.83
2018-12-14T07:20:57.466Z,1.86
2018-12-14T07:22:12.143Z,1.87
2018-12-14T07:23:12.154Z,1.93
2018-12-14T07:23:57.605Z,1.88
2018-12-14T07:24:57.615Z,1.91
2018-12-14T07:25:57.544Z,1.95
2018-12-14T07:26:57.544Z,1.99
2018-12-14T07:27:57.605Z,1.95
2018-12-14T07:29:57.584Z,2.07
2018-12-14T07:30:57.592Z,1.99
2018-12-14T07:31:57.604Z,1.99
2018-12-14T07:32:57.622Z,2.05
2018-12-14T07:33:57.632Z,1.99
2018-12-14T07:34:57.650Z,2.02
2018-12-14T07:35:57.657Z,1.95
2018-12-14T07:37:12.331Z,1.88
2018-12-14T07:37:57.682Z,1.84
2018-12-14T07:38:57.699Z,2
2018-12-14T07:39:57.708Z,1.98
2018-12-14T07:40:57.718Z,1.98
2018-12-14T07:42:12.392Z,1.93
2018-12-14T07:42:57.743Z,2.05
2018-12-14T07:43:57.756Z,2
2018-12-14T07:45:57.783Z,1.95
2018-12-14T07:46:57.795Z,2
2018-12-14T07:47:57.806Z,1.98
2018-12-14T07:48:57.826Z,2
2018-12-14T07:49:57.832Z,2.06
2018-12-14T07:50:57.898Z,2.02
2018-12-14T07:51:57.861Z,2.07
2018-12-14T07:52:57.919Z,2.07
2018-12-14T07:53:57.882Z,2.02
2018-12-14T07:54:57.906Z,1.93
2018-12-14T07:55:57.919Z,2.02
2018-12-14T07:56:58.197Z,1.93
2018-12-14T07:58:12.594Z,2.07
2018-12-14T07:58:57.946Z,1.9
2018-12-14T08:00:57.971Z,1.98
2018-12-14T08:01:57.984Z,2.02
2018-12-14T08:02:58.011Z,2.02
2018-12-14T08:03:58.006Z,1.98
2018-12-14T08:04:58.223Z,1.95
2018-12-14T08:05:58.032Z,2
2018-12-14T08:06:58.044Z,2
2018-12-14T08:07:58.066Z,1.99
2018-12-14T08:08:58.079Z,1.98
2018-12-14T08:10:12.795Z,2.03
2018-12-14T08:11:12.756Z,2.05
2018-12-14T08:11:58.111Z,2
2018-12-14T08:12:58.168Z,2
2018-12-14T08:14:12.798Z,2
2018-12-14T08:14:58.216Z,2.02
2018-12-14T08:15:58.222Z,2
2018-12-14T08:16:58.282Z,1.99
2018-12-14T08:17:58.189Z,2.06
2018-12-14T08:18:58.195Z,2.06
2018-12-14T08:19:58.214Z,2.1
2018-12-14T08:21:12.887Z,2.16
2018-12-14T08:22:58.248Z,2.16
2018-12-14T08:23:58.259Z,2.1
2018-12-14T08:24:58.274Z,2.09
2018-12-14T08:25:58.280Z,2.23
2018-12-14T08:26:58.297Z,2.24
2018-12-14T08:27:58.308Z,2.14
2018-12-14T08:28:58.319Z,2.1
2018-12-14T08:30:12.996Z,2.14
2018-12-14T08:30:58.346Z,2.18
2018-12-14T08:31:58.366Z,2.09
2018-12-14T08:32:58.371Z,2.17
2018-12-14T08:33:58.384Z,2.07
2018-12-14T08:34:58.402Z,2.09
2018-12-14T08:35:58.413Z,2.12
2018-12-14T08:37:13.090Z,2.07
2018-12-14T08:39:13.114Z,2.09
2018-12-14T08:40:58.479Z,2.16
2018-12-14T08:42:13.148Z,2.2
2018-12-14T08:42:58.508Z,2.12
2018-12-14T08:43:58.512Z,2.16
2018-12-14T08:45:13.186Z,2.14
2018-12-14T08:45:58.554Z,2.17
2018-12-14T08:46:58.550Z,2.21
2018-12-14T08:47:58.569Z,2.3
2018-12-14T08:48:58.577Z,2.24
2018-12-14T08:49:58.590Z,2.34
2018-12-14T08:50:58.599Z,2.36
2018-12-14T08:51:58.612Z,2.43
2018-12-14T08:54:58.661Z,2.35
2018-12-14T08:56:13.327Z,2.27
2018-12-14T08:57:13.338Z,2.12
2018-12-14T08:57:58.742Z,2.24
2018-12-14T08:58:58.702Z,2.16
2018-12-14T08:59:58.713Z,2.23
2018-12-14T09:00:58.732Z,2.17
2018-12-14T09:01:58.738Z,2.28
2018-12-14T09:02:58.806Z,2.25
2018-12-14T09:03:58.763Z,2.23
2018-12-14T09:04:58.780Z,2.27
2018-12-14T09:05:58.802Z,2.31
2018-12-14T09:06:58.803Z,2.35
2018-12-14T09:07:58.823Z,2.31
2018-12-14T09:08:58.838Z,2.34
2018-12-14T09:09:58.841Z,2.28
2018-12-14T09:10:58.860Z,2.31
2018-12-14T09:11:58.869Z,2.34
2018-12-14T09:13:13.558Z,2.31
2018-12-14T09:13:58.894Z,2.3
2018-12-14T09:14:58.911Z,2.39
2018-12-14T09:15:58.921Z,2.41
2018-12-14T09:17:13.593Z,2.42
2018-12-14T09:17:58.946Z,2.38
2018-12-14T09:18:58.958Z,2.41
2018-12-14T09:19:59.018Z,2.45
2018-12-14T09:21:03.559Z,2.35
2018-12-14T09:21:58.997Z,2.42
2018-12-14T09:22:59.011Z,2.45
2018-12-14T09:23:59.026Z,2.46
2018-12-14T09:24:59.037Z,2.48
2018-12-14T09:25:59.048Z,2.45
2018-12-14T09:26:59.069Z,2.43
2018-12-14T09:27:59.078Z,2.42
2018-12-14T09:28:59.137Z,2.43
2018-12-14T09:29:59.100Z,2.46
2018-12-14T09:30:59.130Z,2.52
2018-12-14T09:31:59.130Z,2.43
2018-12-14T09:33:13.554Z,2.42
2018-12-14T09:33:59.148Z,2.52
2018-12-14T09:34:59.209Z,2.45
2018-12-14T09:37:59.199Z,2.52
2018-12-14T09:38:59.222Z,2.49
2018-12-14T09:39:59.731Z,2.52
2018-12-14T09:40:59.289Z,2.49
2018-12-14T09:42:13.916Z,2.49
2018-12-14T09:42:59.264Z,2.48
2018-12-14T09:43:59.380Z,2.35
2018-12-14T09:44:59.295Z,2.38
2018-12-14T09:46:13.965Z,2.42
2018-12-14T09:46:59.320Z,2.42
2018-12-14T09:47:59.331Z,2.38
2018-12-14T09:49:14.011Z,2.39
2018-12-14T09:49:59.363Z,2.45
2018-12-14T09:50:59.378Z,2.54
2018-12-14T09:51:59.434Z,2.57
2018-12-14T09:52:59.394Z,2.59
2018-12-14T09:53:59.406Z,2.59
2018-12-14T09:55:59.439Z,2.67
2018-12-14T09:56:59.447Z,2.57
2018-12-14T09:57:59.457Z,2.59
2018-12-14T09:58:59.472Z,2.54
2018-12-14T09:59:59.484Z,2.45
2018-12-14T10:00:59.497Z,2.61
2018-12-14T10:01:59.521Z,2.57
2018-12-14T10:02:59.523Z,2.72
2018-12-14T10:04:14.193Z,2.71
2018-12-14T10:05:14.208Z,2.71
2018-12-14T10:05:59.561Z,2.72
2018-12-14T10:06:59.571Z,2.63
2018-12-14T10:07:59.589Z,2.57
2018-12-14T10:08:59.702Z,2.53
2018-12-14T10:09:59.661Z,2.56
2018-12-14T10:10:59.624Z,2.56
2018-12-14T10:12:00.379Z,2.59
2018-12-14T10:14:05.642Z,2.69
2018-12-14T10:14:59.676Z,2.71
2018-12-14T10:15:59.691Z,2.72
2018-12-14T10:17:14.364Z,2.78
2018-12-14T10:17:59.723Z,2.79
2018-12-14T10:18:59.731Z,2.78
2018-12-14T10:20:14.406Z,2.64
2018-12-14T10:20:59.756Z,2.79
2018-12-14T10:21:59.766Z,2.77
2018-12-14T10:23:14.452Z,2.79
2018-12-14T10:23:59.801Z,2.77
2018-12-14T10:24:59.867Z,2.77
2018-12-14T10:25:59.819Z,2.79
2018-12-14T10:26:59.844Z,2.87
2018-12-14T10:27:59.849Z,2.93
2018-12-14T10:29:01.201Z,2.95
2018-12-14T10:30:14.535Z,2.85
2018-12-14T10:30:59.640Z,2.93
2018-12-14T10:31:59.896Z,2.92
2018-12-14T10:32:59.911Z,2.97
2018-12-14T10:33:59.922Z,2.95
2018-12-14T10:34:59.947Z,3.03
2018-12-14T10:35:59.954Z,3.03
2018-12-14T10:36:59.964Z,2.95
2018-12-14T10:37:59.984Z,3.06
2018-12-14T10:38:59.990Z,3
2018-12-14T10:40:00.001Z,3.06
2018-12-14T10:41:00.015Z,3.08
2018-12-14T10:44:14.721Z,3.08
2018-12-14T10:45:00.070Z,3.03
2018-12-14T10:46:00.087Z,3.02
2018-12-14T10:47:00.093Z,3.08
2018-12-14T10:48:00.114Z,3.11
2018-12-14T10:49:14.782Z,3.2
2018-12-14T10:50:00.139Z,3.21
2018-12-14T10:51:00.150Z,3.11
2018-12-14T10:52:14.823Z,3.14
2018-12-14T10:53:00.172Z,3.2
2018-12-14T10:54:00.186Z,3.23
2018-12-14T10:55:00.203Z,3.23
2018-12-14T10:56:00.212Z,3.14
2018-12-14T10:57:00.278Z,3.18
2018-12-14T10:58:00.304Z,3.06
2018-12-14T10:59:00.272Z,3.14
2018-12-14T11:00:00.272Z,3.18
2018-12-14T11:01:00.299Z,3.26
2018-12-14T11:02:00.298Z,3.14
2018-12-14T11:03:15.018Z,3.17
2018-12-14T11:04:00.370Z,3.26
2018-12-14T11:05:00.338Z,3.24
2018-12-14T11:06:00.397Z,3.28
2018-12-14T11:07:00.364Z,3.33
2018-12-14T11:08:15.034Z,3.33
2018-12-14T11:09:00.389Z,3.31
2018-12-14T11:11:00.417Z,3.2
2018-12-14T11:12:00.427Z,3.28
2018-12-14T11:13:00.500Z,3.29
2018-12-14T11:15:00.467Z,3.35
2018-12-14T11:16:00.480Z,3.35
2018-12-14T11:17:00.495Z,3.36
2018-12-14T11:18:00.519Z,3.39
2018-12-14T11:19:15.183Z,3.42
2018-12-14T11:20:15.197Z,3.5
2018-12-14T11:21:00.550Z,3.54
2018-12-14T11:22:00.563Z,3.51
2018-12-14T11:23:00.572Z,3.55
2018-12-14T11:24:15.248Z,3.45
2018-12-14T11:25:00.602Z,3.45
2018-12-14T11:26:00.618Z,3.4
2018-12-14T11:27:00.628Z,3.36
2018-12-14T11:28:00.644Z,3.39
2018-12-14T11:29:00.657Z,3.39
2018-12-14T11:30:00.680Z,3.43
2018-12-14T11:31:00.681Z,3.57
2018-12-14T11:33:15.439Z,3.57
2018-12-14T11:34:00.774Z,3.5
2018-12-14T11:35:00.734Z,3.57
2018-12-14T11:36:15.411Z,3.5
2018-12-14T11:37:00.766Z,3.45
2018-12-14T11:38:00.786Z,3.29
2018-12-14T11:39:00.789Z,3.45
2018-12-14T11:40:15.464Z,3.55
2018-12-14T11:41:00.566Z,3.54
2018-12-14T11:42:00.831Z,3.6
2018-12-14T11:43:00.844Z,3.6
2018-12-14T11:45:00.870Z,3.55
2018-12-14T11:46:00.885Z,3.57
2018-12-14T11:47:00.895Z,3.6
2018-12-14T11:48:00.919Z,3.51
2018-12-14T11:50:00.951Z,3.58
2018-12-14T11:51:00.950Z,3.55
2018-12-14T11:52:15.681Z,3.47
2018-12-14T11:53:00.978Z,3.57
2018-12-14T11:54:00.993Z,3.6
2018-12-14T11:55:15.669Z,3.58
2018-12-14T11:56:02.394Z,3.58
2018-12-14T11:58:01.052Z,3.45
2018-12-14T11:59:01.063Z,3.42
2018-12-14T12:00:01.205Z,3.47
2018-12-14T12:01:01.090Z,3.47
2018-12-14T12:02:01.156Z,3.39
2018-12-14T12:03:01.225Z,3.33
2018-12-14T12:04:01.128Z,3.4
2018-12-14T12:05:01.146Z,3.4
2018-12-14T12:06:15.868Z,3.45
2018-12-14T12:07:01.175Z,3.55
2018-12-14T12:08:01.182Z,3.6
2018-12-14T12:09:01.196Z,3.54
2018-12-14T12:10:01.231Z,3.5
2018-12-14T12:11:01.223Z,3.51
2018-12-14T12:12:01.239Z,3.47
2018-12-14T12:13:01.304Z,3.43
2018-12-14T12:14:01.314Z,3.4
2018-12-14T12:15:01.283Z,3.54
2018-12-14T12:17:01.315Z,3.48
2018-12-14T12:18:01.316Z,3.39
2018-12-14T12:19:01.328Z,3.31
2018-12-14T12:21:01.359Z,3.23
2018-12-14T12:22:01.377Z,3.33
2018-12-14T12:23:01.386Z,3.39
2018-12-14T12:24:01.399Z,3.5
2018-12-14T12:25:01.412Z,3.42
2018-12-14T12:26:01.426Z,3.4
2018-12-14T12:27:16.102Z,3.35
2018-12-14T12:28:01.451Z,3.33
2018-12-14T12:29:01.476Z,3.36
2018-12-14T12:30:01.479Z,3.24
2018-12-14T12:31:16.194Z,3.33
2018-12-14T12:32:01.505Z,3.29
2018-12-14T12:33:01.526Z,3.29
2018-12-14T12:34:01.540Z,3.32
2018-12-14T12:35:01.547Z,3.28
2018-12-14T12:36:01.564Z,3.21
2018-12-14T12:38:01.587Z,3.15
2018-12-14T12:39:01.602Z,3.18
2018-12-14T12:40:01.686Z,3.11
2018-12-14T12:41:01.633Z,3.14
2018-12-14T12:42:01.639Z,3.08
2018-12-14T12:43:16.318Z,3.1
2018-12-14T12:44:01.668Z,3.2
2018-12-14T12:45:01.690Z,3.17
2018-12-14T12:46:01.693Z,3.18
2018-12-14T12:47:01.704Z,3.2
2018-12-14T12:48:01.716Z,3.21
2018-12-14T12:49:01.736Z,3.13
2018-12-14T12:50:01.744Z,3.2
2018-12-14T12:51:07.753Z,3.08
2018-12-14T12:52:01.773Z,3.11
2018-12-14T12:54:01.549Z,3.02
2018-12-14T12:55:01.813Z,3.05
2018-12-14T12:56:01.831Z,2.95
2018-12-14T12:57:01.895Z,2.95
2018-12-14T12:58:01.851Z,2.92
2018-12-14T12:59:16.526Z,2.93
2018-12-14T13:00:01.877Z,2.85
2018-12-14T13:01:01.894Z,2.92
2018-12-14T13:02:01.904Z,2.9
2018-12-14T13:03:01.919Z,2.87
2018-12-14T13:04:01.929Z,2.93
2018-12-14T13:06:01.959Z,2.95
2018-12-14T13:08:16.652Z,2.95
2018-12-14T13:09:02.065Z,2.95
2018-12-14T13:10:02.008Z,2.93
2018-12-14T13:11:02.021Z,2.9
2018-12-14T13:12:02.057Z,2.95
2018-12-14T13:13:02.154Z,3.05
2018-12-14T13:14:02.072Z,3.02
2018-12-14T13:15:16.747Z,2.92
2018-12-14T13:16:02.099Z,2.96
2018-12-14T13:17:02.107Z,2.95
2018-12-14T13:18:02.119Z,2.87
2018-12-14T13:19:02.133Z,2.79
2018-12-14T13:20:02.147Z,2.85
2018-12-14T13:21:02.155Z,2.82
2018-12-14T13:22:02.175Z,2.82
2018-12-14T13:23:02.234Z,2.9
2018-12-14T13:24:16.912Z,2.92
2018-12-14T13:25:02.228Z,2.93
2018-12-14T13:26:02.221Z,2.96
2018-12-14T13:27:20.183Z,2.99
2018-12-14T13:28:02.246Z,2.93
2018-12-14T13:29:02.276Z,2.89
2018-12-14T13:30:16.944Z,2.9
2018-12-14T13:31:16.967Z,2.95
2018-12-14T13:32:02.301Z,2.9
2018-12-14T13:33:02.318Z,2.89
2018-12-14T13:34:02.327Z,2.92
2018-12-14T13:35:02.392Z,2.96
2018-12-14T13:36:02.355Z,2.89
2018-12-14T13:37:02.365Z,2.87
2018-12-14T13:38:02.395Z,2.84
2018-12-14T13:39:02.146Z,2.82
2018-12-14T13:40:02.429Z,2.82
2018-12-14T13:41:02.494Z,2.79
2018-12-14T13:42:02.526Z,2.78
2018-12-14T13:43:02.494Z,2.74
2018-12-14T13:44:02.468Z,2.77
2018-12-14T13:46:02.607Z,2.79
2018-12-14T13:47:02.534Z,2.75
2018-12-14T13:48:02.560Z,2.77
2018-12-14T13:49:07.681Z,2.75
2018-12-14T13:50:02.575Z,2.82
2018-12-14T13:51:02.549Z,2.66
2018-12-14T13:52:02.616Z,2.59
2018-12-14T13:53:02.577Z,2.59
2018-12-14T13:55:02.611Z,2.56
2018-12-14T13:57:02.632Z,2.64
2018-12-14T13:58:17.305Z,2.6
2018-12-14T13:59:02.659Z,2.53
2018-12-14T14:00:02.669Z,2.46
2018-12-14T14:01:02.690Z,2.49
2018-12-14T14:02:17.355Z,2.46
2018-12-14T14:03:02.711Z,2.49
2018-12-14T14:04:02.721Z,2.49
2018-12-14T14:05:02.731Z,2.52
2018-12-14T14:06:02.766Z,2.57
2018-12-14T14:07:02.760Z,2.52
2018-12-14T14:08:02.776Z,2.56
2018-12-14T14:09:02.783Z,2.6
2018-12-14T14:10:02.825Z,2.53
2018-12-14T14:11:02.874Z,2.61
2018-12-14T14:12:02.830Z,2.53
2018-12-14T14:14:02.850Z,2.45
2018-12-14T14:15:02.866Z,2.52
2018-12-14T14:16:02.872Z,2.43
2018-12-14T14:17:02.888Z,2.46
2018-12-14T14:18:17.562Z,2.45
2018-12-14T14:19:02.913Z,2.48
2018-12-14T14:20:02.980Z,2.53
2018-12-14T14:21:02.937Z,2.53
2018-12-14T14:22:02.957Z,2.57
2018-12-14T14:23:02.963Z,2.53